Skip to content

Loading builds...

Workspace of oi-userland on Built-In Node

build
files
firefox-155.0.1
manifests
patches
.gitignoreAug 19, 2025, 2:17:06 AM6 B
ach.xpiSep 4, 2026, 11:46:38 PM360.17 KiB
af.xpiSep 4, 2026, 11:46:38 PM346.72 KiB
an.xpiSep 4, 2026, 11:46:38 PM388.29 KiB
ar.xpiSep 4, 2026, 11:46:39 PM530.13 KiB
ast.xpiSep 4, 2026, 11:46:39 PM383.41 KiB
az.xpiSep 4, 2026, 11:46:40 PM399.68 KiB
be.xpiSep 4, 2026, 11:46:40 PM595.47 KiB
bg.xpiSep 4, 2026, 11:46:40 PM507.39 KiB
bn.xpiSep 4, 2026, 11:46:41 PM457.75 KiB
br.xpiSep 4, 2026, 11:46:41 PM430.35 KiB
bs.xpiSep 4, 2026, 11:46:41 PM463.75 KiB
ca.xpiSep 4, 2026, 11:46:42 PM483.77 KiB
cak.xpiSep 4, 2026, 11:46:42 PM432.64 KiB
ca-valencia.xpiSep 4, 2026, 11:46:42 PM408.49 KiB
cs.xpiSep 4, 2026, 11:46:43 PM545.34 KiB
cy.xpiSep 4, 2026, 11:46:43 PM504.09 KiB
da.xpiSep 4, 2026, 11:46:43 PM476.00 KiB
de.xpiSep 4, 2026, 11:46:44 PM515.54 KiB
dsb.xpiSep 4, 2026, 11:46:44 PM530.37 KiB
el.xpiSep 4, 2026, 11:46:44 PM611.92 KiB
en-CA.xpiSep 4, 2026, 11:46:45 PM465.17 KiB
en-GB.xpiSep 4, 2026, 11:46:45 PM465.43 KiB
en-US.xpiSep 4, 2026, 11:46:45 PM667.95 KiB
eo.xpiSep 4, 2026, 11:46:46 PM492.26 KiB
es-AR.xpiSep 4, 2026, 11:46:46 PM505.06 KiB
es-CL.xpiSep 4, 2026, 11:46:46 PM507.32 KiB
es-ES.xpiSep 4, 2026, 11:46:47 PM495.97 KiB
es-MX.xpiSep 4, 2026, 11:46:47 PM506.69 KiB
et.xpiSep 4, 2026, 11:46:48 PM398.25 KiB
eu.xpiSep 4, 2026, 11:46:48 PM490.41 KiB
fa.xpiSep 4, 2026, 11:46:48 PM464.16 KiB
ff.xpiSep 4, 2026, 11:46:49 PM371.48 KiB
fi.xpiSep 4, 2026, 11:46:49 PM494.48 KiB
firefox.licenseSep 5, 2026, 1:39:32 AM255.04 KiB
firefox.p5mSep 1, 2026, 10:35:42 PM16.47 KiB
fr.xpiSep 4, 2026, 11:46:49 PM521.67 KiB
fur.xpiSep 4, 2026, 11:46:50 PM497.11 KiB
fy-NL.xpiSep 4, 2026, 11:46:50 PM501.60 KiB
ga-IE.xpiSep 4, 2026, 11:46:50 PM383.01 KiB
gd.xpiSep 4, 2026, 11:46:51 PM438.81 KiB
gl.xpiSep 4, 2026, 11:46:51 PM460.17 KiB
gn.xpiSep 4, 2026, 11:46:52 PM510.14 KiB
gu-IN.xpiSep 4, 2026, 11:46:52 PM417.68 KiB
he.xpiSep 4, 2026, 11:46:52 PM518.23 KiB
hi-IN.xpiSep 4, 2026, 11:46:53 PM431.76 KiB
historyAug 19, 2025, 2:17:06 AM51 B
hr.xpiSep 4, 2026, 11:46:53 PM485.92 KiB
hsb.xpiSep 4, 2026, 11:46:53 PM526.91 KiB
hu.xpiSep 4, 2026, 11:46:54 PM530.96 KiB
hy-AM.xpiSep 4, 2026, 11:46:54 PM533.19 KiB
ia.xpiSep 4, 2026, 11:46:55 PM488.29 KiB
id.xpiSep 4, 2026, 11:46:55 PM449.77 KiB
is.xpiSep 4, 2026, 11:46:55 PM463.59 KiB
it.xpiSep 4, 2026, 11:46:55 PM501.10 KiB
ja.xpiSep 4, 2026, 11:46:56 PM546.34 KiB
ka.xpiSep 4, 2026, 11:46:56 PM560.42 KiB
kab.xpiSep 4, 2026, 11:46:57 PM449.93 KiB
kk.xpiSep 4, 2026, 11:46:57 PM586.31 KiB
km.xpiSep 4, 2026, 11:46:57 PM435.90 KiB
kn.xpiSep 4, 2026, 11:46:58 PM400.86 KiB
ko.xpiSep 4, 2026, 11:46:58 PM530.15 KiB
lij.xpiSep 4, 2026, 11:46:58 PM379.89 KiB
lt.xpiSep 4, 2026, 11:46:59 PM419.45 KiB
lv.xpiSep 4, 2026, 11:46:59 PM445.53 KiB
MakefileSep 4, 2026, 11:46:09 PM11.22 KiB
mk.xpiSep 4, 2026, 11:46:59 PM431.29 KiB
mr.xpiSep 4, 2026, 11:47:00 PM415.26 KiB
ms.xpiSep 4, 2026, 11:47:00 PM378.41 KiB
my.xpiSep 4, 2026, 11:47:01 PM411.97 KiB
nb-NO.xpiSep 4, 2026, 11:47:01 PM487.21 KiB
ne-NP.xpiSep 4, 2026, 11:47:01 PM413.08 KiB
nl.xpiSep 4, 2026, 11:47:02 PM495.36 KiB
nn-NO.xpiSep 4, 2026, 11:47:02 PM490.88 KiB
oc.xpiSep 4, 2026, 11:47:02 PM442.14 KiB
pa-IN.xpiSep 4, 2026, 11:47:03 PM579.22 KiB
pkg5Sep 5, 2026, 1:39:40 AM1.11 KiB
pl.xpiSep 4, 2026, 11:47:03 PM528.28 KiB
pt-BR.xpiSep 4, 2026, 11:47:03 PM500.19 KiB
pt-PT.xpiSep 4, 2026, 11:47:04 PM492.19 KiB
rm.xpiSep 4, 2026, 11:47:04 PM468.52 KiB
ro.xpiSep 4, 2026, 11:47:04 PM514.88 KiB
ru.xpiSep 4, 2026, 11:47:05 PM599.31 KiB
sat.xpiSep 4, 2026, 11:47:05 PM502.37 KiB
sc.xpiSep 4, 2026, 11:47:05 PM474.02 KiB
sco.xpiSep 4, 2026, 11:47:06 PM383.24 KiB
si.xpiSep 4, 2026, 11:47:06 PM459.25 KiB
sk.xpiSep 4, 2026, 11:47:06 PM534.83 KiB
skr.xpiSep 4, 2026, 11:47:07 PM505.32 KiB
sl.xpiSep 4, 2026, 11:47:07 PM500.62 KiB
son.xpiSep 4, 2026, 11:47:08 PM346.28 KiB
sq.xpiSep 4, 2026, 11:47:08 PM496.20 KiB
sr.xpiSep 4, 2026, 11:47:08 PM570.51 KiB
sv-SE.xpiSep 4, 2026, 11:47:09 PM494.58 KiB
szl.xpiSep 4, 2026, 11:47:09 PM402.06 KiB
ta.xpiSep 4, 2026, 11:47:09 PM403.96 KiB
te.xpiSep 4, 2026, 11:47:10 PM441.98 KiB
tg.xpiSep 4, 2026, 11:47:10 PM573.02 KiB
th.xpiSep 4, 2026, 11:47:10 PM559.07 KiB
tl.xpiSep 4, 2026, 11:47:11 PM399.63 KiB
tr.xpiSep 4, 2026, 11:47:11 PM509.11 KiB
trs.xpiSep 4, 2026, 11:47:12 PM390.43 KiB
uk.xpiSep 4, 2026, 11:47:12 PM577.49 KiB
ur.xpiSep 4, 2026, 11:47:12 PM424.56 KiB
uz.xpiSep 4, 2026, 11:47:13 PM372.75 KiB
vi.xpiSep 4, 2026, 11:47:13 PM535.09 KiB
xh.xpiSep 4, 2026, 11:47:13 PM351.82 KiB
zh-CN.xpiSep 4, 2026, 11:47:14 PM520.72 KiB
zh-TW.xpiSep 4, 2026, 11:47:14 PM526.67 KiB